sensor_id;sensor_type;location;lat;lon;timestamp;temperature;humidity
15103;DHT22;7652;53.584;9.998;2022-11-18T00:02:13;3.40;99.90
15103;DHT22;7652;53.584;9.998;2022-11-18T00:05:16;3.30;99.90
15103;DHT22;7652;53.584;9.998;2022-11-18T00:08:19;3.40;99.90
15103;DHT22;7652;53.584;9.998;2022-11-18T00:11:23;3.30;99.90
15103;DHT22;7652;53.584;9.998;2022-11-18T00:14:45;3.30;99.90
15103;DHT22;7652;53.584;9.998;2022-11-18T00:17:49;3.30;99.90
15103;DHT22;7652;53.584;9.998;2022-11-18T00:20:52;3.30;99.90
15103;DHT22;7652;53.584;9.998;2022-11-18T00:23:55;3.30;99.90
15103;DHT22;7652;53.584;9.998;2022-11-18T00:26:58;3.40;99.90
15103;DHT22;7652;53.584;9.998;2022-11-18T00:30:02;3.40;99.90
15103;DHT22;7652;53.584;9.998;2022-11-18T00:33:06;3.40;99.90
15103;DHT22;7652;53.584;9.998;2022-11-18T00:36:10;3.40;99.90
15103;DHT22;7652;53.584;9.998;2022-11-18T00:39:15;3.40;99.90
15103;DHT22;7652;53.584;9.998;2022-11-18T00:42:19;3.40;99.90
15103;DHT22;7652;53.584;9.998;2022-11-18T00:45:41;3.20;99.90
15103;DHT22;7652;53.584;9.998;2022-11-18T00:48:45;3.20;99.90
15103;DHT22;7652;53.584;9.998;2022-11-18T00:51:48;3.30;99.90
15103;DHT22;7652;53.584;9.998;2022-11-18T00:54:51;3.30;99.90
15103;DHT22;7652;53.584;9.998;2022-11-18T00:57:54;3.30;99.90
15103;DHT22;7652;53.584;9.998;2022-11-18T01:00:57;3.30;99.90
15103;DHT22;7652;53.584;9.998;2022-11-18T01:04:01;3.30;99.90
15103;DHT22;7652;53.584;9.998;2022-11-18T01:07:04;3.30;99.90
15103;DHT22;7652;53.584;9.998;2022-11-18T01:10:08;3.30;99.90
15103;DHT22;7652;53.584;9.998;2022-11-18T01:13:12;3.30;99.90
15103;DHT22;7652;53.584;9.998;2022-11-18T01:16:21;3.30;99.90
15103;DHT22;7652;53.584;9.998;2022-11-18T01:19:26;3.20;99.90
15103;DHT22;7652;53.584;9.998;2022-11-18T01:22:29;3.20;99.90
15103;DHT22;7652;53.584;9.998;2022-11-18T01:25:34;3.30;99.90
15103;DHT22;7652;53.584;9.998;2022-11-18T01:28:37;3.20;99.90
15103;DHT22;7652;53.584;9.998;2022-11-18T01:31:41;3.10;99.90
15103;DHT22;7652;53.584;9.998;2022-11-18T01:35:06;3.00;99.90
15103;DHT22;7652;53.584;9.998;2022-11-18T01:38:10;3.00;99.90
15103;DHT22;7652;53.584;9.998;2022-11-18T01:41:14;3.00;99.90
15103;DHT22;7652;53.584;9.998;2022-11-18T01:44:56;3.10;99.90
15103;DHT22;7652;53.584;9.998;2022-11-18T01:48:05;3.10;99.90
15103;DHT22;7652;53.584;9.998;2022-11-18T01:51:14;3.10;99.90
15103;DHT22;7652;53.584;9.998;2022-11-18T01:54:20;3.00;99.90
15103;DHT22;7652;53.584;9.998;2022-11-18T01:57:25;2.90;99.90
15103;DHT22;7652;53.584;9.998;2022-11-18T02:00:31;3.00;99.90
15103;DHT22;7652;53.584;9.998;2022-11-18T02:03:34;3.00;99.90
15103;DHT22;7652;53.584;9.998;2022-11-18T02:06:41;2.90;99.90
15103;DHT22;7652;53.584;9.998;2022-11-18T02:09:44;2.80;99.90
15103;DHT22;7652;53.584;9.998;2022-11-18T02:12:48;2.80;99.90
15103;DHT22;7652;53.584;9.998;2022-11-18T02:15:56;2.90;99.90
15103;DHT22;7652;53.584;9.998;2022-11-18T02:19:10;2.80;99.90
15103;DHT22;7652;53.584;9.998;2022-11-18T02:22:33;2.90;99.90
15103;DHT22;7652;53.584;9.998;2022-11-18T02:25:48;2.80;99.90
15103;DHT22;7652;53.584;9.998;2022-11-18T02:29:02;2.90;99.90
15103;DHT22;7652;53.584;9.998;2022-11-18T02:32:10;2.90;99.90
15103;DHT22;7652;53.584;9.998;2022-11-18T02:35:17;2.90;99.90
15103;DHT22;7652;53.584;9.998;2022-11-18T02:38:26;2.90;99.90
15103;DHT22;7652;53.584;9.998;2022-11-18T02:41:31;2.90;99.90
15103;DHT22;7652;53.584;9.998;2022-11-18T02:44:39;3.10;99.90
15103;DHT22;7652;53.584;9.998;2022-11-18T02:47:45;3.00;99.90
15103;DHT22;7652;53.584;9.998;2022-11-18T02:50:50;3.00;99.90
15103;DHT22;7652;53.584;9.998;2022-11-18T02:53:57;2.90;99.90
15103;DHT22;7652;53.584;9.998;2022-11-18T02:57:03;2.90;99.90
15103;DHT22;7652;53.584;9.998;2022-11-18T03:00:09;2.90;99.90
15103;DHT22;7652;53.584;9.998;2022-11-18T03:03:25;2.90;99.90
15103;DHT22;7652;53.584;9.998;2022-11-18T03:06:31;2.90;99.90
15103;DHT22;7652;53.584;9.998;2022-11-18T03:09:37;2.80;99.90
15103;DHT22;7652;53.584;9.998;2022-11-18T03:12:44;2.90;99.90
15103;DHT22;7652;53.584;9.998;2022-11-18T03:15:54;2.90;99.90
15103;DHT22;7652;53.584;9.998;2022-11-18T03:19:04;2.80;99.90
15103;DHT22;7652;53.584;9.998;2022-11-18T03:22:15;2.80;99.90
15103;DHT22;7652;53.584;9.998;2022-11-18T03:25:25;2.80;99.90
15103;DHT22;7652;53.584;9.998;2022-11-18T03:28:35;2.90;99.90
15103;DHT22;7652;53.584;9.998;2022-11-18T03:31:44;2.90;99.90
15103;DHT22;7652;53.584;9.998;2022-11-18T03:34:50;2.90;99.90
15103;DHT22;7652;53.584;9.998;2022-11-18T03:38:00;2.90;99.90
15103;DHT22;7652;53.584;9.998;2022-11-18T03:41:07;3.00;99.90
15103;DHT22;7652;53.584;9.998;2022-11-18T03:44:16;3.00;99.90
15103;DHT22;7652;53.584;9.998;2022-11-18T03:47:25;2.90;99.90
15103;DHT22;7652;53.584;9.998;2022-11-18T03:50:32;3.00;99.90
15103;DHT22;7652;53.584;9.998;2022-11-18T03:53:39;3.00;99.90
15103;DHT22;7652;53.584;9.998;2022-11-18T03:56:53;3.00;99.90
15103;DHT22;7652;53.584;9.998;2022-11-18T04:00:02;2.90;99.90
15103;DHT22;7652;53.584;9.998;2022-11-18T04:03:09;3.00;99.90
15103;DHT22;7652;53.584;9.998;2022-11-18T04:06:20;3.10;99.90
15103;DHT22;7652;53.584;9.998;2022-11-18T04:09:37;3.00;99.90
15103;DHT22;7652;53.584;9.998;2022-11-18T04:12:47;3.00;99.90
15103;DHT22;7652;53.584;9.998;2022-11-18T04:15:52;2.90;99.90
15103;DHT22;7652;53.584;9.998;2022-11-18T04:18:57;2.90;99.90
15103;DHT22;7652;53.584;9.998;2022-11-18T04:22:07;2.90;99.90
15103;DHT22;7652;53.584;9.998;2022-11-18T04:25:11;2.90;99.90
15103;DHT22;7652;53.584;9.998;2022-11-18T04:28:14;2.90;99.90
15103;DHT22;7652;53.584;9.998;2022-11-18T04:31:17;2.90;99.90
15103;DHT22;7652;53.584;9.998;2022-11-18T04:34:21;2.80;99.90
15103;DHT22;7652;53.584;9.998;2022-11-18T04:37:24;2.90;99.90
15103;DHT22;7652;53.584;9.998;2022-11-18T04:40:27;2.90;99.90
15103;DHT22;7652;53.584;9.998;2022-11-18T04:43:30;2.80;99.90
15103;DHT22;7652;53.584;9.998;2022-11-18T04:46:33;2.80;99.90
15103;DHT22;7652;53.584;9.998;2022-11-18T04:49:38;2.80;99.90
15103;DHT22;7652;53.584;9.998;2022-11-18T04:52:41;2.80;99.90
15103;DHT22;7652;53.584;9.998;2022-11-18T04:55:44;2.90;99.90
15103;DHT22;7652;53.584;9.998;2022-11-18T04:58:47;2.90;99.90
15103;DHT22;7652;53.584;9.998;2022-11-18T05:01:50;2.90;99.90
15103;DHT22;7652;53.584;9.998;2022-11-18T05:04:55;2.80;99.90
15103;DHT22;7652;53.584;9.998;2022-11-18T05:07:58;2.80;99.90
15103;DHT22;7652;53.584;9.998;2022-11-18T05:11:04;2.70;99.90
15103;DHT22;7652;53.584;9.998;2022-11-18T05:14:24;2.80;99.90
15103;DHT22;7652;53.584;9.998;2022-11-18T05:17:27;2.80;99.90
15103;DHT22;7652;53.584;9.998;2022-11-18T05:20:31;2.80;99.90
15103;DHT22;7652;53.584;9.998;2022-11-18T05:23:42;2.90;99.90
15103;DHT22;7652;53.584;9.998;2022-11-18T05:26:45;2.80;99.90
15103;DHT22;7652;53.584;9.998;2022-11-18T05:29:48;2.90;99.90
15103;DHT22;7652;53.584;9.998;2022-11-18T05:32:51;2.90;99.90
15103;DHT22;7652;53.584;9.998;2022-11-18T05:35:55;2.80;99.90
15103;DHT22;7652;53.584;9.998;2022-11-18T05:38:59;2.70;99.90
15103;DHT22;7652;53.584;9.998;2022-11-18T05:42:02;2.80;99.90
15103;DHT22;7652;53.584;9.998;2022-11-18T05:45:23;2.70;99.90
15103;DHT22;7652;53.584;9.998;2022-11-18T05:48:26;2.80;99.90
15103;DHT22;7652;53.584;9.998;2022-11-18T05:51:31;2.70;99.90
15103;DHT22;7652;53.584;9.998;2022-11-18T05:54:34;2.70;99.90
15103;DHT22;7652;53.584;9.998;2022-11-18T05:57:37;2.70;99.90
15103;DHT22;7652;53.584;9.998;2022-11-18T06:00:40;2.70;99.90
15103;DHT22;7652;53.584;9.998;2022-11-18T06:03:43;2.70;99.90
15103;DHT22;7652;53.584;9.998;2022-11-18T06:06:52;2.70;99.90
15103;DHT22;7652;53.584;9.998;2022-11-18T06:09:58;2.60;99.90
15103;DHT22;7652;53.584;9.998;2022-11-18T06:13:10;2.70;99.90
15103;DHT22;7652;53.584;9.998;2022-11-18T06:16:19;2.70;99.90
15103;DHT22;7652;53.584;9.998;2022-11-18T06:19:24;2.70;99.90
15103;DHT22;7652;53.584;9.998;2022-11-18T06:22:29;2.70;99.90
15103;DHT22;7652;53.584;9.998;2022-11-18T06:25:32;2.70;99.90
15103;DHT22;7652;53.584;9.998;2022-11-18T06:28:35;2.70;99.90
15103;DHT22;7652;53.584;9.998;2022-11-18T06:31:38;2.60;99.90
15103;DHT22;7652;53.584;9.998;2022-11-18T06:34:41;2.70;99.90
15103;DHT22;7652;53.584;9.998;2022-11-18T06:37:46;2.70;99.90
15103;DHT22;7652;53.584;9.998;2022-11-18T06:40:49;2.70;99.90
15103;DHT22;7652;53.584;9.998;2022-11-18T06:43:52;2.70;99.90
15103;DHT22;7652;53.584;9.998;2022-11-18T06:46:55;2.80;99.90
15103;DHT22;7652;53.584;9.998;2022-11-18T06:49:58;2.70;99.90
15103;DHT22;7652;53.584;9.998;2022-11-18T06:53:03;2.70;99.90
15103;DHT22;7652;53.584;9.998;2022-11-18T06:56:07;2.70;99.90
15103;DHT22;7652;53.584;9.998;2022-11-18T06:59:10;2.80;99.90
15103;DHT22;7652;53.584;9.998;2022-11-18T07:02:13;2.70;99.90
15103;DHT22;7652;53.584;9.998;2022-11-18T07:05:19;2.70;99.90
15103;DHT22;7652;53.584;9.998;2022-11-18T07:08:23;2.80;99.90
15103;DHT22;7652;53.584;9.998;2022-11-18T07:11:27;2.80;99.90
15103;DHT22;7652;53.584;9.998;2022-11-18T07:14:30;2.80;99.90
15103;DHT22;7652;53.584;9.998;2022-11-18T07:17:33;2.80;99.90
15103;DHT22;7652;53.584;9.998;2022-11-18T07:20:36;2.70;99.90
15103;DHT22;7652;53.584;9.998;2022-11-18T07:23:41;2.80;99.90
15103;DHT22;7652;53.584;9.998;2022-11-18T07:26:44;2.80;99.90
15103;DHT22;7652;53.584;9.998;2022-11-18T07:29:47;2.80;99.90
15103;DHT22;7652;53.584;9.998;2022-11-18T07:32:50;2.80;99.90
15103;DHT22;7652;53.584;9.998;2022-11-18T07:35:53;2.80;99.90
15103;DHT22;7652;53.584;9.998;2022-11-18T07:38:59;2.80;99.90
15103;DHT22;7652;53.584;9.998;2022-11-18T07:42:02;2.90;99.90
15103;DHT22;7652;53.584;9.998;2022-11-18T07:45:07;2.90;99.90
15103;DHT22;7652;53.584;9.998;2022-11-18T07:48:10;2.90;99.90
15103;DHT22;7652;53.584;9.998;2022-11-18T07:51:14;3.00;99.90
15103;DHT22;7652;53.584;9.998;2022-11-18T07:54:18;3.00;99.90
15103;DHT22;7652;53.584;9.998;2022-11-18T07:57:22;3.10;99.90
15103;DHT22;7652;53.584;9.998;2022-11-18T08:00:25;3.00;99.90
15103;DHT22;7652;53.584;9.998;2022-11-18T08:03:28;3.00;99.90
15103;DHT22;7652;53.584;9.998;2022-11-18T08:06:32;3.00;99.90
15103;DHT22;7652;53.584;9.998;2022-11-18T08:09:36;3.00;99.90
15103;DHT22;7652;53.584;9.998;2022-11-18T08:12:39;3.00;99.90
15103;DHT22;7652;53.584;9.998;2022-11-18T08:15:42;3.10;99.90
15103;DHT22;7652;53.584;9.998;2022-11-18T08:18:46;3.10;99.90
15103;DHT22;7652;53.584;9.998;2022-11-18T08:21:49;3.10;99.90
15103;DHT22;7652;53.584;9.998;2022-11-18T08:24:54;3.10;99.90
15103;DHT22;7652;53.584;9.998;2022-11-18T08:27:56;2.90;99.90
15103;DHT22;7652;53.584;9.998;2022-11-18T08:31:00;3.10;99.90
15103;DHT22;7652;53.584;9.998;2022-11-18T08:34:10;3.00;99.90
15103;DHT22;7652;53.584;9.998;2022-11-18T08:37:13;3.10;99.90
15103;DHT22;7652;53.584;9.998;2022-11-18T08:40:18;3.00;99.90
15103;DHT22;7652;53.584;9.998;2022-11-18T08:43:21;3.10;99.90
15103;DHT22;7652;53.584;9.998;2022-11-18T08:46:24;3.10;99.90
15103;DHT22;7652;53.584;9.998;2022-11-18T08:49:27;3.10;99.90
15103;DHT22;7652;53.584;9.998;2022-11-18T08:52:33;3.10;99.90
15103;DHT22;7652;53.584;9.998;2022-11-18T08:55:37;3.10;99.90
15103;DHT22;7652;53.584;9.998;2022-11-18T08:58:41;3.10;99.90
15103;DHT22;7652;53.584;9.998;2022-11-18T09:01:43;3.10;99.90
15103;DHT22;7652;53.584;9.998;2022-11-18T09:04:47;3.10;99.90
15103;DHT22;7652;53.584;9.998;2022-11-18T09:07:51;3.10;99.90
15103;DHT22;7652;53.584;9.998;2022-11-18T09:10:55;3.10;99.90
15103;DHT22;7652;53.584;9.998;2022-11-18T09:13:59;3.10;99.90
15103;DHT22;7652;53.584;9.998;2022-11-18T09:17:22;3.20;99.90
15103;DHT22;7652;53.584;9.998;2022-11-18T09:20:25;3.10;99.90
15103;DHT22;7652;53.584;9.998;2022-11-18T09:23:28;3.20;99.90
15103;DHT22;7652;53.584;9.998;2022-11-18T09:26:33;3.20;99.90
15103;DHT22;7652;53.584;9.998;2022-11-18T09:29:36;3.30;99.90
15103;DHT22;7652;53.584;9.998;2022-11-18T09:32:39;3.30;99.90
15103;DHT22;7652;53.584;9.998;2022-11-18T09:35:43;3.30;99.90
15103;DHT22;7652;53.584;9.998;2022-11-18T09:38:46;3.30;99.90
15103;DHT22;7652;53.584;9.998;2022-11-18T09:42:00;3.30;99.90
15103;DHT22;7652;53.584;9.998;2022-11-18T09:45:16;3.30;99.90
15103;DHT22;7652;53.584;9.998;2022-11-18T09:48:26;3.40;99.90
15103;DHT22;7652;53.584;9.998;2022-11-18T09:51:45;3.50;99.90
15103;DHT22;7652;53.584;9.998;2022-11-18T09:54:49;3.50;99.90
15103;DHT22;7652;53.584;9.998;2022-11-18T09:57:56;3.50;99.90
15103;DHT22;7652;53.584;9.998;2022-11-18T10:01:01;3.50;99.90
15103;DHT22;7652;53.584;9.998;2022-11-18T10:04:04;3.50;99.90
15103;DHT22;7652;53.584;9.998;2022-11-18T10:07:15;3.60;99.90
15103;DHT22;7652;53.584;9.998;2022-11-18T10:10:23;3.60;99.90
15103;DHT22;7652;53.584;9.998;2022-11-18T10:13:39;3.80;99.90
15103;DHT22;7652;53.584;9.998;2022-11-18T10:16:52;3.80;99.90
15103;DHT22;7652;53.584;9.998;2022-11-18T10:20:11;3.80;99.90
15103;DHT22;7652;53.584;9.998;2022-11-18T10:23:23;3.80;99.90
15103;DHT22;7652;53.584;9.998;2022-11-18T10:26:32;3.90;99.90
15103;DHT22;7652;53.584;9.998;2022-11-18T10:29:37;3.90;99.90
15103;DHT22;7652;53.584;9.998;2022-11-18T10:32:54;3.90;99.90
15103;DHT22;7652;53.584;9.998;2022-11-18T10:36:18;4.10;99.90
15103;DHT22;7652;53.584;9.998;2022-11-18T10:39:22;4.20;99.90
15103;DHT22;7652;53.584;9.998;2022-11-18T10:42:28;4.20;99.90
15103;DHT22;7652;53.584;9.998;2022-11-18T10:45:33;4.00;99.90
15103;DHT22;7652;53.584;9.998;2022-11-18T10:48:36;4.20;99.90
15103;DHT22;7652;53.584;9.998;2022-11-18T10:51:40;4.10;99.90
15103;DHT22;7652;53.584;9.998;2022-11-18T10:54:44;4.20;99.90
15103;DHT22;7652;53.584;9.998;2022-11-18T10:57:49;4.20;99.90
15103;DHT22;7652;53.584;9.998;2022-11-18T11:01:03;4.10;99.90
15103;DHT22;7652;53.584;9.998;2022-11-18T11:04:15;4.20;99.90
15103;DHT22;7652;53.584;9.998;2022-11-18T11:07:25;4.20;99.90
15103;DHT22;7652;53.584;9.998;2022-11-18T11:10:29;4.10;99.90
15103;DHT22;7652;53.584;9.998;2022-11-18T11:13:34;4.10;99.90
15103;DHT22;7652;53.584;9.998;2022-11-18T11:16:47;4.10;99.90
15103;DHT22;7652;53.584;9.998;2022-11-18T11:19:58;4.10;99.90
15103;DHT22;7652;53.584;9.998;2022-11-18T11:23:08;4.00;99.90
15103;DHT22;7652;53.584;9.998;2022-11-18T11:26:17;3.90;99.90
15103;DHT22;7652;53.584;9.998;2022-11-18T11:30:04;3.90;99.90
15103;DHT22;7652;53.584;9.998;2022-11-18T11:33:21;3.90;99.90
15103;DHT22;7652;53.584;9.998;2022-11-18T11:36:37;3.90;99.90
15103;DHT22;7652;53.584;9.998;2022-11-18T11:39:55;3.90;99.90
15103;DHT22;7652;53.584;9.998;2022-11-18T11:43:16;4.00;99.90
15103;DHT22;7652;53.584;9.998;2022-11-18T11:46:27;4.00;99.90
15103;DHT22;7652;53.584;9.998;2022-11-18T11:49:44;4.00;99.90
15103;DHT22;7652;53.584;9.998;2022-11-18T11:53:03;3.90;99.90
15103;DHT22;7652;53.584;9.998;2022-11-18T11:56:16;4.00;99.90
15103;DHT22;7652;53.584;9.998;2022-11-18T11:59:28;4.10;99.90
15103;DHT22;7652;53.584;9.998;2022-11-18T12:02:48;4.10;99.90
15103;DHT22;7652;53.584;9.998;2022-11-18T12:05:56;4.10;99.90
15103;DHT22;7652;53.584;9.998;2022-11-18T12:09:04;4.00;99.90
15103;DHT22;7652;53.584;9.998;2022-11-18T12:12:20;4.10;99.90
15103;DHT22;7652;53.584;9.998;2022-11-18T12:16:00;4.10;99.90
15103;DHT22;7652;53.584;9.998;2022-11-18T12:19:09;4.20;99.90
15103;DHT22;7652;53.584;9.998;2022-11-18T12:22:14;4.20;99.90
15103;DHT22;7652;53.584;9.998;2022-11-18T12:25:51;4.30;99.90
15103;DHT22;7652;53.584;9.998;2022-11-18T12:29:19;4.40;99.90
15103;DHT22;7652;53.584;9.998;2022-11-18T12:32:31;4.40;99.90
15103;DHT22;7652;53.584;9.998;2022-11-18T12:35:36;4.40;99.90
15103;DHT22;7652;53.584;9.998;2022-11-18T12:38:40;4.40;99.90
15103;DHT22;7652;53.584;9.998;2022-11-18T12:41:54;4.40;99.90
15103;DHT22;7652;53.584;9.998;2022-11-18T12:45:46;4.40;99.90
15103;DHT22;7652;53.584;9.998;2022-11-18T12:48:49;4.40;99.90
15103;DHT22;7652;53.584;9.998;2022-11-18T12:51:53;4.40;99.90
15103;DHT22;7652;53.584;9.998;2022-11-18T12:55:00;4.30;99.90
15103;DHT22;7652;53.584;9.998;2022-11-18T12:58:21;4.30;99.90
15103;DHT22;7652;53.584;9.998;2022-11-18T13:01:25;4.40;99.90
15103;DHT22;7652;53.584;9.998;2022-11-18T13:04:29;4.20;99.90
15103;DHT22;7652;53.584;9.998;2022-11-18T13:07:37;4.20;99.90
15103;DHT22;7652;53.584;9.998;2022-11-18T13:11:07;4.10;99.90
15103;DHT22;7652;53.584;9.998;2022-11-18T13:14:30;4.10;99.90
15103;DHT22;7652;53.584;9.998;2022-11-18T13:18:11;4.00;99.90
15103;DHT22;7652;53.584;9.998;2022-11-18T13:21:20;3.90;99.90
15103;DHT22;7652;53.584;9.998;2022-11-18T13:24:43;3.80;99.90
15103;DHT22;7652;53.584;9.998;2022-11-18T13:27:51;3.80;99.90
15103;DHT22;7652;53.584;9.998;2022-11-18T13:31:03;3.80;99.90
15103;DHT22;7652;53.584;9.998;2022-11-18T13:34:14;3.80;99.90
15103;DHT22;7652;53.584;9.998;2022-11-18T13:37:20;3.80;99.90
15103;DHT22;7652;53.584;9.998;2022-11-18T13:40:26;3.80;99.90
15103;DHT22;7652;53.584;9.998;2022-11-18T13:43:31;3.80;99.90
15103;DHT22;7652;53.584;9.998;2022-11-18T13:46:34;3.80;99.90
15103;DHT22;7652;53.584;9.998;2022-11-18T13:49:48;3.80;99.90
15103;DHT22;7652;53.584;9.998;2022-11-18T13:53:02;3.90;99.90
15103;DHT22;7652;53.584;9.998;2022-11-18T13:56:15;3.90;99.90
15103;DHT22;7652;53.584;9.998;2022-11-18T13:59:22;3.90;99.90
15103;DHT22;7652;53.584;9.998;2022-11-18T14:02:25;3.90;99.90
15103;DHT22;7652;53.584;9.998;2022-11-18T14:05:28;3.90;99.90
15103;DHT22;7652;53.584;9.998;2022-11-18T14:08:33;3.80;99.90
15103;DHT22;7652;53.584;9.998;2022-11-18T14:11:39;3.70;99.90
15103;DHT22;7652;53.584;9.998;2022-11-18T14:14:44;3.80;99.90
15103;DHT22;7652;53.584;9.998;2022-11-18T14:17:53;3.60;99.90
15103;DHT22;7652;53.584;9.998;2022-11-18T14:20:58;3.60;99.90
15103;DHT22;7652;53.584;9.998;2022-11-18T14:24:02;3.70;99.90
15103;DHT22;7652;53.584;9.998;2022-11-18T14:27:35;3.60;99.90
15103;DHT22;7652;53.584;9.998;2022-11-18T14:30:40;3.50;99.90
15103;DHT22;7652;53.584;9.998;2022-11-18T14:34:15;3.50;99.90
15103;DHT22;7652;53.584;9.998;2022-11-18T14:37:18;3.40;99.90
15103;DHT22;7652;53.584;9.998;2022-11-18T14:40:21;3.40;99.90
15103;DHT22;7652;53.584;9.998;2022-11-18T14:43:24;3.20;99.90
15103;DHT22;7652;53.584;9.998;2022-11-18T14:46:29;3.20;99.90
15103;DHT22;7652;53.584;9.998;2022-11-18T14:49:33;3.20;99.90
15103;DHT22;7652;53.584;9.998;2022-11-18T14:52:37;3.30;99.90
15103;DHT22;7652;53.584;9.998;2022-11-18T14:55:40;3.20;99.90
15103;DHT22;7652;53.584;9.998;2022-11-18T14:58:44;3.20;99.90
15103;DHT22;7652;53.584;9.998;2022-11-18T15:01:48;3.20;99.90
15103;DHT22;7652;53.584;9.998;2022-11-18T15:04:52;3.10;99.90
15103;DHT22;7652;53.584;9.998;2022-11-18T15:07:55;3.10;99.90
15103;DHT22;7652;53.584;9.998;2022-11-18T15:10:58;3.10;99.90
15103;DHT22;7652;53.584;9.998;2022-11-18T15:14:01;3.10;99.90
15103;DHT22;7652;53.584;9.998;2022-11-18T15:17:05;3.00;99.90
15103;DHT22;7652;53.584;9.998;2022-11-18T15:20:11;2.90;99.90
15103;DHT22;7652;53.584;9.998;2022-11-18T15:23:16;2.90;99.90
15103;DHT22;7652;53.584;9.998;2022-11-18T15:26:21;2.80;99.90
15103;DHT22;7652;53.584;9.998;2022-11-18T15:29:24;2.80;99.90
15103;DHT22;7652;53.584;9.998;2022-11-18T15:32:29;2.80;99.90
15103;DHT22;7652;53.584;9.998;2022-11-18T15:35:32;2.80;99.90
15103;DHT22;7652;53.584;9.998;2022-11-18T15:38:35;2.70;99.90
15103;DHT22;7652;53.584;9.998;2022-11-18T15:41:39;2.70;99.90
15103;DHT22;7652;53.584;9.998;2022-11-18T15:44:43;2.60;99.90
15103;DHT22;7652;53.584;9.998;2022-11-18T15:47:50;2.60;99.90
15103;DHT22;7652;53.584;9.998;2022-11-18T15:50:53;2.50;99.90
15103;DHT22;7652;53.584;9.998;2022-11-18T15:53:56;2.50;99.90
15103;DHT22;7652;53.584;9.998;2022-11-18T15:56:59;2.50;99.90
15103;DHT22;7652;53.584;9.998;2022-11-18T16:00:04;2.40;99.90
15103;DHT22;7652;53.584;9.998;2022-11-18T16:03:08;2.40;99.90
15103;DHT22;7652;53.584;9.998;2022-11-18T16:06:11;2.30;99.90
15103;DHT22;7652;53.584;9.998;2022-11-18T16:09:15;2.30;99.90
15103;DHT22;7652;53.584;9.998;2022-11-18T16:12:19;2.30;99.90
15103;DHT22;7652;53.584;9.998;2022-11-18T16:15:36;2.30;99.90
15103;DHT22;7652;53.584;9.998;2022-11-18T16:18:46;2.20;99.90
15103;DHT22;7652;53.584;9.998;2022-11-18T16:21:51;2.10;99.90
15103;DHT22;7652;53.584;9.998;2022-11-18T16:24:54;2.10;99.90
15103;DHT22;7652;53.584;9.998;2022-11-18T16:27:57;2.00;99.90
15103;DHT22;7652;53.584;9.998;2022-11-18T16:31:08;2.00;99.90
15103;DHT22;7652;53.584;9.998;2022-11-18T16:34:41;2.00;99.90
15103;DHT22;7652;53.584;9.998;2022-11-18T16:37:44;2.00;99.90
15103;DHT22;7652;53.584;9.998;2022-11-18T16:40:53;2.00;99.90
15103;DHT22;7652;53.584;9.998;2022-11-18T16:43:57;1.90;99.90
15103;DHT22;7652;53.584;9.998;2022-11-18T16:47:00;1.90;99.90
15103;DHT22;7652;53.584;9.998;2022-11-18T16:50:06;1.90;99.90
15103;DHT22;7652;53.584;9.998;2022-11-18T16:53:10;1.90;99.90
15103;DHT22;7652;53.584;9.998;2022-11-18T16:56:13;1.90;99.90
15103;DHT22;7652;53.584;9.998;2022-11-18T16:59:17;1.90;99.90
15103;DHT22;7652;53.584;9.998;2022-11-18T17:02:22;1.90;99.90
15103;DHT22;7652;53.584;9.998;2022-11-18T17:05:27;2.00;99.90
15103;DHT22;7652;53.584;9.998;2022-11-18T17:08:32;2.00;99.90
15103;DHT22;7652;53.584;9.998;2022-11-18T17:11:36;2.00;99.90
15103;DHT22;7652;53.584;9.998;2022-11-18T17:14:39;2.10;99.90
15103;DHT22;7652;53.584;9.998;2022-11-18T17:17:42;2.10;99.90
15103;DHT22;7652;53.584;9.998;2022-11-18T17:20:46;2.10;99.90
15103;DHT22;7652;53.584;9.998;2022-11-18T17:23:49;2.10;99.90
15103;DHT22;7652;53.584;9.998;2022-11-18T17:26:52;2.20;99.90
15103;DHT22;7652;53.584;9.998;2022-11-18T17:29:56;2.20;99.90
15103;DHT22;7652;53.584;9.998;2022-11-18T17:32:59;2.20;99.90
15103;DHT22;7652;53.584;9.998;2022-11-18T17:36:05;2.10;99.90
15103;DHT22;7652;53.584;9.998;2022-11-18T17:39:09;2.10;99.90
15103;DHT22;7652;53.584;9.998;2022-11-18T17:42:13;2.10;99.90
15103;DHT22;7652;53.584;9.998;2022-11-18T17:45:18;2.00;99.90
15103;DHT22;7652;53.584;9.998;2022-11-18T17:48:22;1.90;99.90
15103;DHT22;7652;53.584;9.998;2022-11-18T17:51:28;1.90;99.90
15103;DHT22;7652;53.584;9.998;2022-11-18T17:54:31;1.80;99.90
15103;DHT22;7652;53.584;9.998;2022-11-18T17:57:34;1.80;99.90
15103;DHT22;7652;53.584;9.998;2022-11-18T18:00:38;1.80;99.90
15103;DHT22;7652;53.584;9.998;2022-11-18T18:03:42;1.80;99.90
15103;DHT22;7652;53.584;9.998;2022-11-18T18:06:47;1.80;99.90
15103;DHT22;7652;53.584;9.998;2022-11-18T18:09:51;1.80;99.90
15103;DHT22;7652;53.584;9.998;2022-11-18T18:12:54;1.80;99.90
15103;DHT22;7652;53.584;9.998;2022-11-18T18:16:16;1.80;99.90
15103;DHT22;7652;53.584;9.998;2022-11-18T18:19:20;1.80;99.90
15103;DHT22;7652;53.584;9.998;2022-11-18T18:22:25;1.90;99.90
15103;DHT22;7652;53.584;9.998;2022-11-18T18:25:28;1.90;99.90
15103;DHT22;7652;53.584;9.998;2022-11-18T18:28:31;1.90;99.90
15103;DHT22;7652;53.584;9.998;2022-11-18T18:31:35;1.90;99.90
15103;DHT22;7652;53.584;9.998;2022-11-18T18:34:38;1.90;99.90
15103;DHT22;7652;53.584;9.998;2022-11-18T18:37:43;1.80;99.90
15103;DHT22;7652;53.584;9.998;2022-11-18T18:40:45;1.80;99.90
15103;DHT22;7652;53.584;9.998;2022-11-18T18:43:49;1.80;99.90
15103;DHT22;7652;53.584;9.998;2022-11-18T18:46:52;1.80;99.90
15103;DHT22;7652;53.584;9.998;2022-11-18T18:49:55;1.80;99.90
15103;DHT22;7652;53.584;9.998;2022-11-18T18:52:59;1.80;99.90
15103;DHT22;7652;53.584;9.998;2022-11-18T18:56:03;1.80;99.90
15103;DHT22;7652;53.584;9.998;2022-11-18T18:59:06;1.70;99.90
15103;DHT22;7652;53.584;9.998;2022-11-18T19:02:11;1.80;99.90
15103;DHT22;7652;53.584;9.998;2022-11-18T19:05:14;1.70;99.90
15103;DHT22;7652;53.584;9.998;2022-11-18T19:08:18;1.80;99.90
15103;DHT22;7652;53.584;9.998;2022-11-18T19:11:22;1.70;99.90
15103;DHT22;7652;53.584;9.998;2022-11-18T19:14:43;1.70;99.90
15103;DHT22;7652;53.584;9.998;2022-11-18T19:17:46;1.60;99.90
15103;DHT22;7652;53.584;9.998;2022-11-18T19:20:49;1.70;99.90
15103;DHT22;7652;53.584;9.998;2022-11-18T19:23:53;1.90;99.90
15103;DHT22;7652;53.584;9.998;2022-11-18T19:26:56;2.00;99.90
15103;DHT22;7652;53.584;9.998;2022-11-18T19:29:59;1.90;99.90
15103;DHT22;7652;53.584;9.998;2022-11-18T19:33:03;2.00;99.90
15103;DHT22;7652;53.584;9.998;2022-11-18T19:36:07;1.90;99.90
15103;DHT22;7652;53.584;9.998;2022-11-18T19:39:11;1.80;99.90
15103;DHT22;7652;53.584;9.998;2022-11-18T19:42:14;1.90;99.90
15103;DHT22;7652;53.584;9.998;2022-11-18T19:45:17;1.90;99.90
15103;DHT22;7652;53.584;9.998;2022-11-18T19:48:21;1.90;99.90
15103;DHT22;7652;53.584;9.998;2022-11-18T19:51:24;2.00;99.90
15103;DHT22;7652;53.584;9.998;2022-11-18T19:54:28;2.00;99.90
15103;DHT22;7652;53.584;9.998;2022-11-18T19:57:31;2.00;99.90
15103;DHT22;7652;53.584;9.998;2022-11-18T20:00:34;2.00;99.90
15103;DHT22;7652;53.584;9.998;2022-11-18T20:03:37;2.00;99.90
15103;DHT22;7652;53.584;9.998;2022-11-18T20:06:40;2.00;99.90
15103;DHT22;7652;53.584;9.998;2022-11-18T20:09:45;1.80;99.90
15103;DHT22;7652;53.584;9.998;2022-11-18T20:12:48;1.80;99.90
15103;DHT22;7652;53.584;9.998;2022-11-18T20:15:51;1.70;99.90
15103;DHT22;7652;53.584;9.998;2022-11-18T20:18:56;1.70;99.90
15103;DHT22;7652;53.584;9.998;2022-11-18T20:21:59;1.70;99.90